Mykolayiv, Ukraine
Current Conditions -  °F | °C
As of 7:00 AM on Monday 22 Dec 2014 (Local Time) from UKON Reporting Station
Clear Clear  
Wind Chill: 24°   Ceiling: Unl
Heat Index: 32°   Visibility: 6mi
Dew Point: 28°   Wind: 9mph
Humidity: 87%   Direction: 250°WSW
Pressure: 30.06"   Gusts: NA
Location:  46.97°N, 32°E
Report Text: UKON 220400Z 25004MPS 210V280 CAVOK M00/M02 Q1018 NOSIG
Loading
Personal Weather Stations






























Interactive Weather Map New forecast layout! Learn more

10-Day Weather Forecast

Advertisements
Track Severe Weather on mobile